sensor_id;sensor_type;location;lat;lon;timestamp;P1;durP1;ratioP1;P2;durP2;ratioP2
6475;SDS011;3271;51.910;5.840;2023-05-13T00:00:36;4.35;;;3.65;;
6475;SDS011;3271;51.910;5.840;2023-05-13T00:03:02;5.10;;;4.28;;
6475;SDS011;3271;51.910;5.840;2023-05-13T00:05:28;4.30;;;3.70;;
6475;SDS011;3271;51.910;5.840;2023-05-13T00:07:54;5.28;;;3.65;;
6475;SDS011;3271;51.910;5.840;2023-05-13T00:10:20;4.18;;;3.78;;
6475;SDS011;3271;51.910;5.840;2023-05-13T00:12:46;3.83;;;3.42;;
6475;SDS011;3271;51.910;5.840;2023-05-13T00:15:12;5.03;;;4.00;;
6475;SDS011;3271;51.910;5.840;2023-05-13T00:17:38;4.90;;;3.33;;
6475;SDS011;3271;51.910;5.840;2023-05-13T00:20:04;4.50;;;4.10;;
6475;SDS011;3271;51.910;5.840;2023-05-13T00:22:31;6.88;;;3.80;;
6475;SDS011;3271;51.910;5.840;2023-05-13T00:24:57;5.18;;;4.10;;
6475;SDS011;3271;51.910;5.840;2023-05-13T00:27:23;4.82;;;3.72;;
6475;SDS011;3271;51.910;5.840;2023-05-13T00:29:49;3.72;;;3.42;;
6475;SDS011;3271;51.910;5.840;2023-05-13T00:32:15;6.63;;;3.88;;
6475;SDS011;3271;51.910;5.840;2023-05-13T00:34:40;4.57;;;4.18;;
6475;SDS011;3271;51.910;5.840;2023-05-13T00:37:06;3.72;;;3.42;;
6475;SDS011;3271;51.910;5.840;2023-05-13T00:39:34;4.53;;;4.13;;
6475;SDS011;3271;51.910;5.840;2023-05-13T00:42:00;5.63;;;3.88;;
6475;SDS011;3271;51.910;5.840;2023-05-13T00:44:28;4.70;;;3.97;;
6475;SDS011;3271;51.910;5.840;2023-05-13T00:46:54;6.00;;;3.92;;
6475;SDS011;3271;51.910;5.840;2023-05-13T00:49:21;4.80;;;3.70;;
6475;SDS011;3271;51.910;5.840;2023-05-13T00:51:47;5.07;;;4.50;;
6475;SDS011;3271;51.910;5.840;2023-05-13T00:54:14;5.85;;;3.95;;
6475;SDS011;3271;51.910;5.840;2023-05-13T00:56:40;7.05;;;4.30;;
6475;SDS011;3271;51.910;5.840;2023-05-13T00:59:06;5.47;;;4.30;;
6475;SDS011;3271;51.910;5.840;2023-05-13T01:01:37;4.85;;;4.13;;
6475;SDS011;3271;51.910;5.840;2023-05-13T01:09:59;5.78;;;4.43;;
6475;SDS011;3271;51.910;5.840;2023-05-13T01:12:32;5.05;;;4.15;;
6475;SDS011;3271;51.910;5.840;2023-05-13T01:15:02;6.97;;;4.38;;
6475;SDS011;3271;51.910;5.840;2023-05-13T01:17:33;4.97;;;4.13;;
6475;SDS011;3271;51.910;5.840;2023-05-13T01:20:01;4.45;;;4.03;;
6475;SDS011;3271;51.910;5.840;2023-05-13T01:22:28;4.43;;;4.03;;
6475;SDS011;3271;51.910;5.840;2023-05-13T01:24:54;4.93;;;4.10;;
6475;SDS011;3271;51.910;5.840;2023-05-13T01:27:20;4.88;;;4.22;;
6475;SDS011;3271;51.910;5.840;2023-05-13T01:29:46;4.80;;;4.22;;
6475;SDS011;3271;51.910;5.840;2023-05-13T01:32:13;7.38;;;4.38;;
6475;SDS011;3271;51.910;5.840;2023-05-13T01:34:39;7.03;;;4.40;;
6475;SDS011;3271;51.910;5.840;2023-05-13T01:37:05;5.40;;;4.28;;
6475;SDS011;3271;51.910;5.840;2023-05-13T01:39:31;4.32;;;4.03;;
6475;SDS011;3271;51.910;5.840;2023-05-13T01:41:58;4.35;;;3.95;;
6475;SDS011;3271;51.910;5.840;2023-05-13T01:44:24;5.10;;;4.47;;
6475;SDS011;3271;51.910;5.840;2023-05-13T01:46:50;6.53;;;4.60;;
6475;SDS011;3271;51.910;5.840;2023-05-13T01:49:17;6.63;;;4.15;;
6475;SDS011;3271;51.910;5.840;2023-05-13T01:51:43;5.55;;;5.05;;
6475;SDS011;3271;51.910;5.840;2023-05-13T01:54:09;5.32;;;4.40;;
6475;SDS011;3271;51.910;5.840;2023-05-13T01:56:35;7.80;;;4.70;;
6475;SDS011;3271;51.910;5.840;2023-05-13T01:59:02;7.00;;;5.00;;
6475;SDS011;3271;51.910;5.840;2023-05-13T02:01:28;4.55;;;4.18;;
6475;SDS011;3271;51.910;5.840;2023-05-13T02:03:55;5.57;;;4.28;;
6475;SDS011;3271;51.910;5.840;2023-05-13T02:06:23;4.97;;;4.57;;
6475;SDS011;3271;51.910;5.840;2023-05-13T02:08:49;5.63;;;4.40;;
6475;SDS011;3271;51.910;5.840;2023-05-13T02:11:15;5.13;;;4.63;;
6475;SDS011;3271;51.910;5.840;2023-05-13T02:13:41;5.50;;;4.97;;
6475;SDS011;3271;51.910;5.840;2023-05-13T02:16:07;6.10;;;4.80;;
6475;SDS011;3271;51.910;5.840;2023-05-13T02:18:33;5.03;;;4.50;;
6475;SDS011;3271;51.910;5.840;2023-05-13T02:20:59;5.25;;;4.82;;
6475;SDS011;3271;51.910;5.840;2023-05-13T02:23:24;5.00;;;4.50;;
6475;SDS011;3271;51.910;5.840;2023-05-13T02:25:50;5.05;;;4.47;;
6475;SDS011;3271;51.910;5.840;2023-05-13T02:28:16;5.93;;;5.22;;
6475;SDS011;3271;51.910;5.840;2023-05-13T02:30:43;6.28;;;4.72;;
6475;SDS011;3271;51.910;5.840;2023-05-13T02:33:08;9.30;;;5.03;;
6475;SDS011;3271;51.910;5.840;2023-05-13T02:35:34;4.90;;;4.45;;
6475;SDS011;3271;51.910;5.840;2023-05-13T02:38:00;4.45;;;4.07;;
6475;SDS011;3271;51.910;5.840;2023-05-13T02:40:28;4.75;;;4.35;;
6475;SDS011;3271;51.910;5.840;2023-05-13T02:42:54;5.90;;;4.82;;
6475;SDS011;3271;51.910;5.840;2023-05-13T02:45:20;6.00;;;4.47;;
6475;SDS011;3271;51.910;5.840;2023-05-13T02:47:46;6.50;;;4.85;;
6475;SDS011;3271;51.910;5.840;2023-05-13T02:50:12;5.00;;;4.60;;
6475;SDS011;3271;51.910;5.840;2023-05-13T02:52:37;7.07;;;5.13;;
6475;SDS011;3271;51.910;5.840;2023-05-13T02:55:07;5.60;;;4.70;;
6475;SDS011;3271;51.910;5.840;2023-05-13T02:57:33;5.45;;;4.68;;
6475;SDS011;3271;51.910;5.840;2023-05-13T03:00:00;5.30;;;4.80;;
6475;SDS011;3271;51.910;5.840;2023-05-13T03:02:26;5.43;;;4.93;;
6475;SDS011;3271;51.910;5.840;2023-05-13T03:04:52;5.82;;;4.80;;
6475;SDS011;3271;51.910;5.840;2023-05-13T03:07:19;5.47;;;4.97;;
6475;SDS011;3271;51.910;5.840;2023-05-13T03:09:45;5.18;;;4.70;;
6475;SDS011;3271;51.910;5.840;2023-05-13T03:12:11;5.55;;;5.00;;
6475;SDS011;3271;51.910;5.840;2023-05-13T03:14:37;5.70;;;4.63;;
6475;SDS011;3271;51.910;5.840;2023-05-13T03:17:04;7.15;;;5.50;;
6475;SDS011;3271;51.910;5.840;2023-05-13T03:19:30;5.75;;;5.25;;
6475;SDS011;3271;51.910;5.840;2023-05-13T03:21:56;5.68;;;5.18;;
6475;SDS011;3271;51.910;5.840;2023-05-13T03:24:22;5.45;;;4.88;;
6475;SDS011;3271;51.910;5.840;2023-05-13T03:26:48;5.45;;;4.95;;
6475;SDS011;3271;51.910;5.840;2023-05-13T03:29:14;5.97;;;5.22;;
6475;SDS011;3271;51.910;5.840;2023-05-13T03:31:39;5.63;;;5.13;;
6475;SDS011;3271;51.910;5.840;2023-05-13T03:34:05;5.85;;;5.35;;
6475;SDS011;3271;51.910;5.840;2023-05-13T03:36:31;8.40;;;5.50;;
6475;SDS011;3271;51.910;5.840;2023-05-13T03:38:57;7.03;;;5.05;;
6475;SDS011;3271;51.910;5.840;2023-05-13T03:41:23;8.05;;;5.00;;
6475;SDS011;3271;51.910;5.840;2023-05-13T03:43:49;4.88;;;4.47;;
6475;SDS011;3271;51.910;5.840;2023-05-13T03:46:15;7.38;;;5.25;;
6475;SDS011;3271;51.910;5.840;2023-05-13T03:48:41;5.80;;;5.30;;
6475;SDS011;3271;51.910;5.840;2023-05-13T03:51:07;6.50;;;5.68;;
6475;SDS011;3271;51.910;5.840;2023-05-13T03:53:33;6.25;;;5.68;;
6475;SDS011;3271;51.910;5.840;2023-05-13T03:55:59;5.82;;;4.95;;
6475;SDS011;3271;51.910;5.840;2023-05-13T03:58:25;7.28;;;5.35;;
6475;SDS011;3271;51.910;5.840;2023-05-13T04:00:51;6.60;;;4.90;;
6475;SDS011;3271;51.910;5.840;2023-05-13T04:03:17;6.00;;;5.40;;
6475;SDS011;3271;51.910;5.840;2023-05-13T04:05:44;7.13;;;5.72;;
6475;SDS011;3271;51.910;5.840;2023-05-13T04:08:10;6.32;;;4.85;;
6475;SDS011;3271;51.910;5.840;2023-05-13T04:10:36;5.90;;;5.40;;
6475;SDS011;3271;51.910;5.840;2023-05-13T04:13:02;8.20;;;5.43;;
6475;SDS011;3271;51.910;5.840;2023-05-13T04:15:28;5.47;;;5.07;;
6475;SDS011;3271;51.910;5.840;2023-05-13T04:17:55;5.93;;;4.97;;
6475;SDS011;3271;51.910;5.840;2023-05-13T04:20:21;5.82;;;5.32;;
6475;SDS011;3271;51.910;5.840;2023-05-13T04:22:47;5.85;;;5.05;;
6475;SDS011;3271;51.910;5.840;2023-05-13T04:25:13;5.45;;;5.00;;
6475;SDS011;3271;51.910;5.840;2023-05-13T04:27:39;6.63;;;5.32;;
6475;SDS011;3271;51.910;5.840;2023-05-13T04:30:05;5.18;;;4.78;;
6475;SDS011;3271;51.910;5.840;2023-05-13T04:32:31;5.50;;;5.00;;
6475;SDS011;3271;51.910;5.840;2023-05-13T04:34:57;5.47;;;5.07;;
6475;SDS011;3271;51.910;5.840;2023-05-13T04:37:23;6.65;;;5.38;;
6475;SDS011;3271;51.910;5.840;2023-05-13T04:39:49;5.70;;;5.20;;
6475;SDS011;3271;51.910;5.840;2023-05-13T04:42:15;5.40;;;4.88;;
6475;SDS011;3271;51.910;5.840;2023-05-13T04:44:41;5.45;;;4.93;;
6475;SDS011;3271;51.910;5.840;2023-05-13T04:47:07;7.15;;;5.30;;
6475;SDS011;3271;51.910;5.840;2023-05-13T04:49:33;6.22;;;5.63;;
6475;SDS011;3271;51.910;5.840;2023-05-13T04:52:02;6.82;;;5.80;;
6475;SDS011;3271;51.910;5.840;2023-05-13T04:54:29;6.53;;;5.93;;
6475;SDS011;3271;51.910;5.840;2023-05-13T04:56:55;9.63;;;6.32;;
6475;SDS011;3271;51.910;5.840;2023-05-13T04:59:21;5.45;;;5.00;;
6475;SDS011;3271;51.910;5.840;2023-05-13T05:01:47;6.90;;;5.68;;
6475;SDS011;3271;51.910;5.840;2023-05-13T05:04:13;6.65;;;5.85;;
6475;SDS011;3271;51.910;5.840;2023-05-13T05:06:39;6.63;;;6.00;;
6475;SDS011;3271;51.910;5.840;2023-05-13T05:09:05;9.10;;;5.70;;
6475;SDS011;3271;51.910;5.840;2023-05-13T05:11:31;6.13;;;5.53;;
6475;SDS011;3271;51.910;5.840;2023-05-13T05:13:57;6.72;;;5.88;;
6475;SDS011;3271;51.910;5.840;2023-05-13T05:16:23;6.90;;;6.30;;
6475;SDS011;3271;51.910;5.840;2023-05-13T05:18:49;9.30;;;6.03;;
6475;SDS011;3271;51.910;5.840;2023-05-13T05:21:14;6.50;;;5.80;;
6475;SDS011;3271;51.910;5.840;2023-05-13T05:23:42;6.53;;;5.63;;
6475;SDS011;3271;51.910;5.840;2023-05-13T05:26:08;6.47;;;5.97;;
6475;SDS011;3271;51.910;5.840;2023-05-13T05:28:33;7.47;;;6.88;;
6475;SDS011;3271;51.910;5.840;2023-05-13T05:31:00;7.70;;;6.05;;
6475;SDS011;3271;51.910;5.840;2023-05-13T05:33:26;6.57;;;5.95;;
6475;SDS011;3271;51.910;5.840;2023-05-13T05:35:52;6.85;;;6.13;;
6475;SDS011;3271;51.910;5.840;2023-05-13T05:38:18;6.82;;;6.07;;
6475;SDS011;3271;51.910;5.840;2023-05-13T05:40:44;7.22;;;6.63;;
6475;SDS011;3271;51.910;5.840;2023-05-13T05:43:11;6.75;;;6.05;;
6475;SDS011;3271;51.910;5.840;2023-05-13T05:45:37;8.45;;;6.63;;
6475;SDS011;3271;51.910;5.840;2023-05-13T05:48:03;7.25;;;6.05;;
6475;SDS011;3271;51.910;5.840;2023-05-13T05:50:30;7.93;;;6.47;;
6475;SDS011;3271;51.910;5.840;2023-05-13T05:52:56;7.95;;;6.97;;
6475;SDS011;3271;51.910;5.840;2023-05-13T05:55:23;7.15;;;6.45;;
6475;SDS011;3271;51.910;5.840;2023-05-13T05:57:49;7.07;;;6.47;;
6475;SDS011;3271;51.910;5.840;2023-05-13T06:00:15;7.95;;;7.13;;
6475;SDS011;3271;51.910;5.840;2023-05-13T06:02:42;7.57;;;6.90;;
6475;SDS011;3271;51.910;5.840;2023-05-13T06:05:08;7.25;;;6.55;;
6475;SDS011;3271;51.910;5.840;2023-05-13T06:07:34;7.50;;;6.07;;
6475;SDS011;3271;51.910;5.840;2023-05-13T06:10:00;7.88;;;6.22;;
6475;SDS011;3271;51.910;5.840;2023-05-13T06:12:26;7.10;;;6.40;;
6475;SDS011;3271;51.910;5.840;2023-05-13T06:14:52;7.32;;;6.63;;
6475;SDS011;3271;51.910;5.840;2023-05-13T06:17:18;7.32;;;6.57;;
6475;SDS011;3271;51.910;5.840;2023-05-13T06:19:44;8.48;;;7.07;;
6475;SDS011;3271;51.910;5.840;2023-05-13T06:22:10;9.68;;;6.90;;
6475;SDS011;3271;51.910;5.840;2023-05-13T06:24:36;7.65;;;6.90;;
6475;SDS011;3271;51.910;5.840;2023-05-13T06:27:08;8.13;;;6.70;;
6475;SDS011;3271;51.910;5.840;2023-05-13T06:29:34;9.68;;;7.00;;
6475;SDS011;3271;51.910;5.840;2023-05-13T06:32:00;7.40;;;6.78;;
6475;SDS011;3271;51.910;5.840;2023-05-13T06:34:26;8.77;;;7.15;;
6475;SDS011;3271;51.910;5.840;2023-05-13T06:36:52;7.25;;;6.03;;
6475;SDS011;3271;51.910;5.840;2023-05-13T06:39:18;8.32;;;7.15;;
6475;SDS011;3271;51.910;5.840;2023-05-13T06:41:44;7.70;;;6.90;;
6475;SDS011;3271;51.910;5.840;2023-05-13T06:44:10;7.78;;;6.75;;
6475;SDS011;3271;51.910;5.840;2023-05-13T06:46:36;8.18;;;6.72;;
6475;SDS011;3271;51.910;5.840;2023-05-13T06:49:02;7.25;;;6.57;;
6475;SDS011;3271;51.910;5.840;2023-05-13T06:51:28;7.10;;;6.50;;
6475;SDS011;3271;51.910;5.840;2023-05-13T06:53:56;7.60;;;6.90;;
6475;SDS011;3271;51.910;5.840;2023-05-13T06:56:22;6.93;;;6.20;;
6475;SDS011;3271;51.910;5.840;2023-05-13T06:58:49;7.78;;;7.07;;
6475;SDS011;3271;51.910;5.840;2023-05-13T07:01:15;8.63;;;7.13;;
6475;SDS011;3271;51.910;5.840;2023-05-13T07:03:42;7.10;;;6.38;;
6475;SDS011;3271;51.910;5.840;2023-05-13T07:06:08;6.72;;;6.13;;
6475;SDS011;3271;51.910;5.840;2023-05-13T07:08:34;7.35;;;6.40;;
6475;SDS011;3271;51.910;5.840;2023-05-13T07:11:00;7.80;;;7.00;;
6475;SDS011;3271;51.910;5.840;2023-05-13T07:13:26;7.68;;;6.78;;
6475;SDS011;3271;51.910;5.840;2023-05-13T07:15:53;7.80;;;7.10;;
6475;SDS011;3271;51.910;5.840;2023-05-13T07:18:19;8.93;;;8.02;;
6475;SDS011;3271;51.910;5.840;2023-05-13T07:20:45;7.72;;;5.68;;
6475;SDS011;3271;51.910;5.840;2023-05-13T07:23:11;8.40;;;7.00;;
6475;SDS011;3271;51.910;5.840;2023-05-13T07:25:37;8.25;;;6.22;;
6475;SDS011;3271;51.910;5.840;2023-05-13T07:28:03;7.15;;;6.50;;
6475;SDS011;3271;51.910;5.840;2023-05-13T07:30:29;6.82;;;6.10;;
6475;SDS011;3271;51.910;5.840;2023-05-13T07:32:55;6.32;;;5.63;;
6475;SDS011;3271;51.910;5.840;2023-05-13T07:35:21;8.35;;;6.13;;
6475;SDS011;3271;51.910;5.840;2023-05-13T07:37:47;6.68;;;5.80;;
6475;SDS011;3271;51.910;5.840;2023-05-13T07:40:13;5.93;;;5.53;;
6475;SDS011;3271;51.910;5.840;2023-05-13T07:42:39;6.00;;;5.50;;
6475;SDS011;3271;51.910;5.840;2023-05-13T07:45:06;7.43;;;6.60;;
6475;SDS011;3271;51.910;5.840;2023-05-13T07:47:32;6.15;;;5.55;;
6475;SDS011;3271;51.910;5.840;2023-05-13T07:49:58;6.35;;;5.40;;
6475;SDS011;3271;51.910;5.840;2023-05-13T07:52:24;8.02;;;6.82;;
6475;SDS011;3271;51.910;5.840;2023-05-13T07:54:50;7.38;;;6.22;;
6475;SDS011;3271;51.910;5.840;2023-05-13T07:57:16;8.35;;;6.10;;
6475;SDS011;3271;51.910;5.840;2023-05-13T07:59:42;7.68;;;6.00;;
6475;SDS011;3271;51.910;5.840;2023-05-13T08:02:09;7.05;;;5.78;;
6475;SDS011;3271;51.910;5.840;2023-05-13T08:04:35;5.85;;;5.15;;
6475;SDS011;3271;51.910;5.840;2023-05-13T08:07:01;6.13;;;5.60;;
6475;SDS011;3271;51.910;5.840;2023-05-13T08:09:27;6.20;;;5.60;;
6475;SDS011;3271;51.910;5.840;2023-05-13T08:11:53;6.97;;;5.65;;
6475;SDS011;3271;51.910;5.840;2023-05-13T08:14:19;6.28;;;5.68;;
6475;SDS011;3271;51.910;5.840;2023-05-13T08:16:45;6.47;;;5.22;;
6475;SDS011;3271;51.910;5.840;2023-05-13T08:19:14;6.28;;;5.65;;
6475;SDS011;3271;51.910;5.840;2023-05-13T08:21:40;8.45;;;5.32;;
6475;SDS011;3271;51.910;5.840;2023-05-13T08:24:06;5.68;;;5.05;;
6475;SDS011;3271;51.910;5.840;2023-05-13T08:26:32;5.82;;;5.25;;
6475;SDS011;3271;51.910;5.840;2023-05-13T08:28:58;5.45;;;4.95;;
6475;SDS011;3271;51.910;5.840;2023-05-13T08:31:24;6.07;;;5.47;;
6475;SDS011;3271;51.910;5.840;2023-05-13T08:33:51;6.55;;;4.57;;
6475;SDS011;3271;51.910;5.840;2023-05-13T08:36:17;5.95;;;4.30;;
6475;SDS011;3271;51.910;5.840;2023-05-13T08:38:43;5.25;;;4.22;;
6475;SDS011;3271;51.910;5.840;2023-05-13T08:41:11;4.78;;;4.35;;
6475;SDS011;3271;51.910;5.840;2023-05-13T08:43:37;6.78;;;4.38;;
6475;SDS011;3271;51.910;5.840;2023-05-13T08:46:04;7.07;;;4.55;;
6475;SDS011;3271;51.910;5.840;2023-05-13T08:48:31;5.30;;;4.50;;
6475;SDS011;3271;51.910;5.840;2023-05-13T08:50:58;5.28;;;4.43;;
6475;SDS011;3271;51.910;5.840;2023-05-13T08:53:26;5.72;;;4.63;;
6475;SDS011;3271;51.910;5.840;2023-05-13T08:55:52;5.78;;;5.05;;
6475;SDS011;3271;51.910;5.840;2023-05-13T08:58:18;4.72;;;4.22;;
6475;SDS011;3271;51.910;5.840;2023-05-13T09:00:44;5.07;;;4.40;;
6475;SDS011;3271;51.910;5.840;2023-05-13T09:03:11;4.00;;;3.70;;
6475;SDS011;3271;51.910;5.840;2023-05-13T09:05:37;4.45;;;3.80;;
6475;SDS011;3271;51.910;5.840;2023-05-13T09:08:05;4.95;;;3.80;;
6475;SDS011;3271;51.910;5.840;2023-05-13T09:10:33;4.65;;;4.25;;
6475;SDS011;3271;51.910;5.840;2023-05-13T09:12:59;4.40;;;4.00;;
6475;SDS011;3271;51.910;5.840;2023-05-13T09:15:25;4.40;;;3.88;;
6475;SDS011;3271;51.910;5.840;2023-05-13T09:17:57;4.60;;;4.15;;
6475;SDS011;3271;51.910;5.840;2023-05-13T09:20:23;6.45;;;4.20;;
6475;SDS011;3271;51.910;5.840;2023-05-13T09:22:51;5.55;;;4.03;;
6475;SDS011;3271;51.910;5.840;2023-05-13T09:25:18;4.25;;;3.95;;
6475;SDS011;3271;51.910;5.840;2023-05-13T09:27:49;5.20;;;4.00;;
6475;SDS011;3271;51.910;5.840;2023-05-13T09:30:15;4.30;;;4.00;;
6475;SDS011;3271;51.910;5.840;2023-05-13T09:32:41;6.65;;;3.75;;
6475;SDS011;3271;51.910;5.840;2023-05-13T09:35:08;5.35;;;4.43;;
6475;SDS011;3271;51.910;5.840;2023-05-13T09:37:34;5.60;;;4.82;;
6475;SDS011;3271;51.910;5.840;2023-05-13T09:40:00;6.45;;;5.07;;
6475;SDS011;3271;51.910;5.840;2023-05-13T09:42:27;6.05;;;5.00;;
6475;SDS011;3271;51.910;5.840;2023-05-13T09:44:54;5.05;;;4.07;;
6475;SDS011;3271;51.910;5.840;2023-05-13T09:47:20;4.68;;;4.18;;
6475;SDS011;3271;51.910;5.840;2023-05-13T09:49:53;5.28;;;4.47;;
6475;SDS011;3271;51.910;5.840;2023-05-13T09:52:21;5.05;;;4.50;;
6475;SDS011;3271;51.910;5.840;2023-05-13T09:54:47;5.60;;;3.83;;
6475;SDS011;3271;51.910;5.840;2023-05-13T09:57:13;4.45;;;4.05;;
6475;SDS011;3271;51.910;5.840;2023-05-13T09:59:40;6.70;;;3.88;;
6475;SDS011;3271;51.910;5.840;2023-05-13T10:02:06;5.13;;;4.25;;
6475;SDS011;3271;51.910;5.840;2023-05-13T10:04:32;8.07;;;3.92;;
6475;SDS011;3271;51.910;5.840;2023-05-13T10:06:58;5.05;;;3.75;;
6475;SDS011;3271;51.910;5.840;2023-05-13T10:09:27;4.85;;;4.05;;
6475;SDS011;3271;51.910;5.840;2023-05-13T10:11:53;5.30;;;3.53;;
6475;SDS011;3271;51.910;5.840;2023-05-13T10:14:20;4.30;;;3.90;;
6475;SDS011;3271;51.910;5.840;2023-05-13T10:16:46;5.55;;;3.80;;
6475;SDS011;3271;51.910;5.840;2023-05-13T10:19:13;5.70;;;3.85;;
6475;SDS011;3271;51.910;5.840;2023-05-13T10:21:39;5.78;;;3.75;;
6475;SDS011;3271;51.910;5.840;2023-05-13T10:24:06;4.65;;;3.53;;
6475;SDS011;3271;51.910;5.840;2023-05-13T10:26:32;6.03;;;3.60;;
6475;SDS011;3271;51.910;5.840;2023-05-13T10:28:58;4.00;;;3.50;;
6475;SDS011;3271;51.910;5.840;2023-05-13T10:31:25;4.93;;;3.70;;
6475;SDS011;3271;51.910;5.840;2023-05-13T10:33:51;4.15;;;3.67;;
6475;SDS011;3271;51.910;5.840;2023-05-13T10:41:36;4.63;;;3.15;;
6475;SDS011;3271;51.910;5.840;2023-05-13T10:44:04;3.30;;;3.10;;
6475;SDS011;3271;51.910;5.840;2023-05-13T10:46:30;4.00;;;3.10;;
6475;SDS011;3271;51.910;5.840;2023-05-13T10:48:58;3.72;;;3.30;;
6475;SDS011;3271;51.910;5.840;2023-05-13T10:51:25;3.80;;;3.10;;
6475;SDS011;3271;51.910;5.840;2023-05-13T10:53:54;4.30;;;3.33;;
6475;SDS011;3271;51.910;5.840;2023-05-13T10:56:22;3.53;;;3.00;;
6475;SDS011;3271;51.910;5.840;2023-05-13T10:58:58;3.30;;;3.00;;
6475;SDS011;3271;51.910;5.840;2023-05-13T11:01:29;3.80;;;3.40;;
6475;SDS011;3271;51.910;5.840;2023-05-13T11:04:02;6.25;;;3.30;;
6475;SDS011;3271;51.910;5.840;2023-05-13T11:06:29;4.03;;;2.90;;
6475;SDS011;3271;51.910;5.840;2023-05-13T11:08:58;4.03;;;3.03;;
6475;SDS011;3271;51.910;5.840;2023-05-13T11:11:25;3.88;;;3.08;;
6475;SDS011;3271;51.910;5.840;2023-05-13T11:13:53;4.93;;;3.17;;
6475;SDS011;3271;51.910;5.840;2023-05-13T11:16:19;4.47;;;3.03;;
6475;SDS011;3271;51.910;5.840;2023-05-13T11:18:46;3.05;;;2.75;;
6475;SDS011;3271;51.910;5.840;2023-05-13T11:21:13;4.60;;;3.47;;
6475;SDS011;3271;51.910;5.840;2023-05-13T11:23:54;3.75;;;3.45;;
6475;SDS011;3271;51.910;5.840;2023-05-13T11:26:21;4.25;;;3.78;;
6475;SDS011;3271;51.910;5.840;2023-05-13T11:29:02;3.90;;;3.60;;
6475;SDS011;3271;51.910;5.840;2023-05-13T11:31:40;4.00;;;2.97;;
6475;SDS011;3271;51.910;5.840;2023-05-13T11:34:10;5.03;;;3.92;;
6475;SDS011;3271;51.910;5.840;2023-05-13T11:36:47;4.47;;;3.30;;
6475;SDS011;3271;51.910;5.840;2023-05-13T11:39:17;6.55;;;3.42;;
6475;SDS011;3271;51.910;5.840;2023-05-13T11:41:50;3.47;;;3.17;;
6475;SDS011;3271;51.910;5.840;2023-05-13T11:44:20;4.57;;;3.60;;
6475;SDS011;3271;51.910;5.840;2023-05-13T11:46:56;5.18;;;3.72;;
6475;SDS011;3271;51.910;5.840;2023-05-13T11:49:36;5.20;;;3.50;;
6475;SDS011;3271;51.910;5.840;2023-05-13T11:52:04;6.05;;;3.47;;
6475;SDS011;3271;51.910;5.840;2023-05-13T11:54:30;3.25;;;2.95;;
6475;SDS011;3271;51.910;5.840;2023-05-13T11:56:56;3.70;;;3.40;;
6475;SDS011;3271;51.910;5.840;2023-05-13T11:59:22;5.55;;;3.17;;
6475;SDS011;3271;51.910;5.840;2023-05-13T12:01:57;5.75;;;3.40;;
6475;SDS011;3271;51.910;5.840;2023-05-13T12:04:27;4.20;;;3.58;;
6475;SDS011;3271;51.910;5.840;2023-05-13T12:06:53;5.93;;;3.83;;
6475;SDS011;3271;51.910;5.840;2023-05-13T12:09:21;5.15;;;3.58;;
6475;SDS011;3271;51.910;5.840;2023-05-13T12:11:47;3.42;;;3.13;;
6475;SDS011;3271;51.910;5.840;2023-05-13T12:14:13;4.55;;;2.85;;
6475;SDS011;3271;51.910;5.840;2023-05-13T12:16:39;3.22;;;2.92;;
6475;SDS011;3271;51.910;5.840;2023-05-13T12:19:06;3.05;;;2.85;;
6475;SDS011;3271;51.910;5.840;2023-05-13T12:21:32;5.20;;;3.38;;
6475;SDS011;3271;51.910;5.840;2023-05-13T12:23:58;3.58;;;3.28;;
6475;SDS011;3271;51.910;5.840;2023-05-13T12:26:24;3.75;;;3.00;;
6475;SDS011;3271;51.910;5.840;2023-05-13T12:28:59;4.10;;;3.78;;
6475;SDS011;3271;51.910;5.840;2023-05-13T12:31:25;6.07;;;3.22;;
6475;SDS011;3271;51.910;5.840;2023-05-13T12:33:51;5.45;;;3.20;;
6475;SDS011;3271;51.910;5.840;2023-05-13T12:36:18;4.15;;;3.78;;
6475;SDS011;3271;51.910;5.840;2023-05-13T12:41:23;5.65;;;3.42;;
6475;SDS011;3271;51.910;5.840;2023-05-13T12:43:56;3.85;;;3.15;;
6475;SDS011;3271;51.910;5.840;2023-05-13T12:46:22;4.88;;;3.58;;
6475;SDS011;3271;51.910;5.840;2023-05-13T12:48:50;3.63;;;3.20;;
6475;SDS011;3271;51.910;5.840;2023-05-13T12:51:16;3.38;;;3.10;;
6475;SDS011;3271;51.910;5.840;2023-05-13T12:53:42;4.78;;;2.67;;
6475;SDS011;3271;51.910;5.840;2023-05-13T12:56:08;3.47;;;3.17;;
6475;SDS011;3271;51.910;5.840;2023-05-13T12:58:34;3.97;;;3.45;;
6475;SDS011;3271;51.910;5.840;2023-05-13T13:01:00;3.80;;;3.50;;
6475;SDS011;3271;51.910;5.840;2023-05-13T13:03:26;4.63;;;3.10;;
6475;SDS011;3271;51.910;5.840;2023-05-13T13:05:52;3.30;;;2.78;;
6475;SDS011;3271;51.910;5.840;2023-05-13T13:08:19;3.30;;;2.80;;
6475;SDS011;3271;51.910;5.840;2023-05-13T13:10:45;3.78;;;2.92;;
6475;SDS011;3271;51.910;5.840;2023-05-13T13:13:11;3.47;;;3.17;;
6475;SDS011;3271;51.910;5.840;2023-05-13T13:15:37;3.42;;;3.00;;
6475;SDS011;3271;51.910;5.840;2023-05-13T13:18:03;3.35;;;3.05;;
6475;SDS011;3271;51.910;5.840;2023-05-13T13:20:29;3.08;;;2.78;;
6475;SDS011;3271;51.910;5.840;2023-05-13T13:22:55;4.85;;;3.30;;
6475;SDS011;3271;51.910;5.840;2023-05-13T13:25:21;3.10;;;2.90;;
6475;SDS011;3271;51.910;5.840;2023-05-13T13:27:47;3.90;;;2.92;;
6475;SDS011;3271;51.910;5.840;2023-05-13T13:30:13;3.55;;;3.17;;
6475;SDS011;3271;51.910;5.840;2023-05-13T13:32:39;3.38;;;2.90;;
6475;SDS011;3271;51.910;5.840;2023-05-13T13:35:05;3.85;;;3.10;;
6475;SDS011;3271;51.910;5.840;2023-05-13T13:37:31;3.65;;;3.35;;
6475;SDS011;3271;51.910;5.840;2023-05-13T13:39:57;4.30;;;3.08;;
6475;SDS011;3271;51.910;5.840;2023-05-13T13:42:23;3.53;;;3.22;;
6475;SDS011;3271;51.910;5.840;2023-05-13T13:44:49;3.42;;;2.85;;
6475;SDS011;3271;51.910;5.840;2023-05-13T13:47:15;3.90;;;3.47;;
6475;SDS011;3271;51.910;5.840;2023-05-13T13:49:41;3.85;;;2.88;;
6475;SDS011;3271;51.910;5.840;2023-05-13T13:52:07;5.07;;;3.03;;
6475;SDS011;3271;51.910;5.840;2023-05-13T13:54:34;5.38;;;3.45;;
6475;SDS011;3271;51.910;5.840;2023-05-13T13:57:00;3.85;;;3.22;;
6475;SDS011;3271;51.910;5.840;2023-05-13T13:59:26;3.40;;;3.13;;
6475;SDS011;3271;51.910;5.840;2023-05-13T14:01:52;3.65;;;3.25;;
6475;SDS011;3271;51.910;5.840;2023-05-13T14:04:18;3.55;;;3.25;;
6475;SDS011;3271;51.910;5.840;2023-05-13T14:06:47;3.42;;;3.13;;
6475;SDS011;3271;51.910;5.840;2023-05-13T14:09:13;5.47;;;3.78;;
6475;SDS011;3271;51.910;5.840;2023-05-13T14:11:39;3.50;;;3.17;;
6475;SDS011;3271;51.910;5.840;2023-05-13T14:14:05;3.92;;;3.55;;
6475;SDS011;3271;51.910;5.840;2023-05-13T14:16:31;3.40;;;3.10;;
6475;SDS011;3271;51.910;5.840;2023-05-13T14:18:57;4.30;;;3.13;;
6475;SDS011;3271;51.910;5.840;2023-05-13T14:21:23;4.60;;;3.10;;
6475;SDS011;3271;51.910;5.840;2023-05-13T14:23:49;4.07;;;3.72;;
6475;SDS011;3271;51.910;5.840;2023-05-13T14:26:15;3.58;;;3.28;;
6475;SDS011;3271;51.910;5.840;2023-05-13T14:28:41;5.82;;;3.50;;
6475;SDS011;3271;51.910;5.840;2023-05-13T14:31:07;4.00;;;3.25;;
6475;SDS011;3271;51.910;5.840;2023-05-13T14:33:33;6.07;;;3.47;;
6475;SDS011;3271;51.910;5.840;2023-05-13T14:35:59;4.53;;;3.40;;
6475;SDS011;3271;51.910;5.840;2023-05-13T14:38:25;5.82;;;5.32;;
6475;SDS011;3271;51.910;5.840;2023-05-13T14:40:55;4.60;;;4.20;;
6475;SDS011;3271;51.910;5.840;2023-05-13T14:43:21;5.22;;;4.50;;
6475;SDS011;3271;51.910;5.840;2023-05-13T14:45:47;5.32;;;4.80;;
6475;SDS011;3271;51.910;5.840;2023-05-13T14:48:13;4.78;;;3.70;;
6475;SDS011;3271;51.910;5.840;2023-05-13T14:50:40;4.70;;;3.30;;
6475;SDS011;3271;51.910;5.840;2023-05-13T14:53:06;4.38;;;3.20;;
6475;SDS011;3271;51.910;5.840;2023-05-13T14:55:32;3.75;;;3.45;;
6475;SDS011;3271;51.910;5.840;2023-05-13T14:57:58;3.95;;;3.05;;
6475;SDS011;3271;51.910;5.840;2023-05-13T15:00:25;3.47;;;3.15;;
6475;SDS011;3271;51.910;5.840;2023-05-13T15:02:51;4.43;;;3.65;;
6475;SDS011;3271;51.910;5.840;2023-05-13T15:05:17;4.80;;;3.35;;
6475;SDS011;3271;51.910;5.840;2023-05-13T15:07:42;6.20;;;3.40;;
6475;SDS011;3271;51.910;5.840;2023-05-13T15:10:08;8.82;;;5.13;;
6475;SDS011;3271;51.910;5.840;2023-05-13T15:12:34;3.80;;;3.40;;
6475;SDS011;3271;51.910;5.840;2023-05-13T15:15:00;5.20;;;3.63;;
6475;SDS011;3271;51.910;5.840;2023-05-13T15:17:27;5.07;;;3.95;;
6475;SDS011;3271;51.910;5.840;2023-05-13T15:19:53;5.70;;;3.53;;
6475;SDS011;3271;51.910;5.840;2023-05-13T15:22:19;4.82;;;3.50;;
6475;SDS011;3271;51.910;5.840;2023-05-13T15:24:45;4.97;;;3.20;;